sensor_id;sensor_type;location;lat;lon;timestamp;pressure;altitude;pressure_sealevel;temperature;humidity
38400;BME280;24180;42.676;23.320;2023-03-14T00:02:08;94986.84;;;2.51;100.00
38400;BME280;24180;42.676;23.320;2023-03-14T00:04:34;94992.41;;;2.57;100.00
38400;BME280;24180;42.676;23.320;2023-03-14T00:07:00;94980.66;;;2.55;100.00
38400;BME280;24180;42.676;23.320;2023-03-14T00:09:25;94983.13;;;2.56;100.00
38400;BME280;24180;42.676;23.320;2023-03-14T00:11:53;94961.75;;;2.43;100.00
38400;BME280;24180;42.676;23.320;2023-03-14T00:14:18;94961.81;;;2.42;100.00
38400;BME280;24180;42.676;23.320;2023-03-14T00:16:47;94971.59;;;2.49;100.00
38400;BME280;24180;42.676;23.320;2023-03-14T00:19:12;94921.16;;;2.09;100.00
38400;BME280;24180;42.676;23.320;2023-03-14T00:21:38;94960.94;;;2.43;100.00
38400;BME280;24180;42.676;23.320;2023-03-14T00:24:04;94964.31;;;2.43;100.00
38400;BME280;24180;42.676;23.320;2023-03-14T00:26:29;94967.88;;;2.41;100.00
38400;BME280;24180;42.676;23.320;2023-03-14T00:28:55;94940.94;;;2.35;100.00
38400;BME280;24180;42.676;23.320;2023-03-14T00:31:21;94946.94;;;2.34;100.00
38400;BME280;24180;42.676;23.320;2023-03-14T00:33:46;94918.28;;;2.15;100.00
38400;BME280;24180;42.676;23.320;2023-03-14T00:36:15;94914.59;;;2.05;100.00
38400;BME280;24180;42.676;23.320;2023-03-14T00:38:41;94930.31;;;2.13;100.00
38400;BME280;24180;42.676;23.320;2023-03-14T00:41:11;94932.69;;;2.16;100.00
38400;BME280;24180;42.676;23.320;2023-03-14T00:43:37;94910.41;;;2.04;100.00
38400;BME280;24180;42.676;23.320;2023-03-14T00:46:03;94925.38;;;2.10;100.00
38400;BME280;24180;42.676;23.320;2023-03-14T00:48:28;94936.50;;;2.09;100.00
38400;BME280;24180;42.676;23.320;2023-03-14T00:50:54;94942.16;;;2.14;100.00
38400;BME280;24180;42.676;23.320;2023-03-14T00:53:20;94934.69;;;2.11;100.00
38400;BME280;24180;42.676;23.320;2023-03-14T00:55:45;94920.59;;;1.89;100.00
38400;BME280;24180;42.676;23.320;2023-03-14T00:58:13;94911.13;;;1.92;100.00
38400;BME280;24180;42.676;23.320;2023-03-14T01:00:39;94934.09;;;1.92;100.00
38400;BME280;24180;42.676;23.320;2023-03-14T01:03:06;94924.06;;;1.88;100.00
38400;BME280;24180;42.676;23.320;2023-03-14T01:05:31;94902.97;;;1.71;100.00
38400;BME280;24180;42.676;23.320;2023-03-14T01:07:57;94904.88;;;1.67;100.00
38400;BME280;24180;42.676;23.320;2023-03-14T01:10:23;94920.78;;;1.86;100.00
38400;BME280;24180;42.676;23.320;2023-03-14T01:12:48;94912.09;;;1.75;100.00
38400;BME280;24180;42.676;23.320;2023-03-14T01:15:14;94923.13;;;1.75;100.00
38400;BME280;24180;42.676;23.320;2023-03-14T01:17:40;94900.09;;;1.61;100.00
38400;BME280;24180;42.676;23.320;2023-03-14T01:20:07;94910.69;;;1.69;100.00
38400;BME280;24180;42.676;23.320;2023-03-14T01:22:37;94900.41;;;1.71;100.00
38400;BME280;24180;42.676;23.320;2023-03-14T01:25:05;94899.41;;;1.73;100.00
38400;BME280;24180;42.676;23.320;2023-03-14T01:27:32;94917.19;;;1.75;100.00
38400;BME280;24180;42.676;23.320;2023-03-14T01:29:57;94900.53;;;1.54;100.00
38400;BME280;24180;42.676;23.320;2023-03-14T01:32:23;94893.50;;;1.57;100.00
38400;BME280;24180;42.676;23.320;2023-03-14T01:34:49;94873.56;;;1.34;100.00
38400;BME280;24180;42.676;23.320;2023-03-14T01:37:14;94877.75;;;1.51;100.00
38400;BME280;24180;42.676;23.320;2023-03-14T01:39:39;94867.59;;;1.49;100.00
38400;BME280;24180;42.676;23.320;2023-03-14T01:42:05;94903.72;;;1.57;100.00
38400;BME280;24180;42.676;23.320;2023-03-14T01:44:55;94890.44;;;1.66;100.00
38400;BME280;24180;42.676;23.320;2023-03-14T01:47:22;94879.84;;;1.58;100.00
38400;BME280;24180;42.676;23.320;2023-03-14T01:49:53;94891.72;;;1.59;100.00
38400;BME280;24180;42.676;23.320;2023-03-14T01:52:26;94891.22;;;1.82;100.00
38400;BME280;24180;42.676;23.320;2023-03-14T01:54:55;94860.25;;;1.59;100.00
38400;BME280;24180;42.676;23.320;2023-03-14T01:57:30;94885.28;;;1.68;100.00
38400;BME280;24180;42.676;23.320;2023-03-14T02:00:11;94868.00;;;1.57;100.00
38400;BME280;24180;42.676;23.320;2023-03-14T02:03:02;94857.22;;;1.22;100.00
38400;BME280;24180;42.676;23.320;2023-03-14T02:05:30;94885.44;;;1.35;100.00
38400;BME280;24180;42.676;23.320;2023-03-14T02:08:02;94877.03;;;1.33;100.00
38400;BME280;24180;42.676;23.320;2023-03-14T02:10:32;94884.81;;;1.46;100.00
38400;BME280;24180;42.676;23.320;2023-03-14T02:13:01;94875.72;;;1.26;100.00
38400;BME280;24180;42.676;23.320;2023-03-14T02:15:27;94868.25;;;1.23;100.00
38400;BME280;24180;42.676;23.320;2023-03-14T02:17:53;94863.81;;;1.26;100.00
38400;BME280;24180;42.676;23.320;2023-03-14T02:22:50;94865.09;;;1.33;100.00
38400;BME280;24180;42.676;23.320;2023-03-14T02:28:06;94864.91;;;1.36;100.00
38400;BME280;24180;42.676;23.320;2023-03-14T02:30:32;94881.84;;;1.53;100.00
38400;BME280;24180;42.676;23.320;2023-03-14T02:33:13;94868.69;;;1.45;100.00
38400;BME280;24180;42.676;23.320;2023-03-14T02:35:59;94878.50;;;1.37;100.00
38400;BME280;24180;42.676;23.320;2023-03-14T02:38:27;94875.56;;;1.59;100.00
38400;BME280;24180;42.676;23.320;2023-03-14T02:40:54;94882.41;;;1.58;100.00
38400;BME280;24180;42.676;23.320;2023-03-14T02:43:23;94859.34;;;1.30;100.00
38400;BME280;24180;42.676;23.320;2023-03-14T02:45:50;94855.44;;;0.93;100.00
38400;BME280;24180;42.676;23.320;2023-03-14T02:48:26;94879.63;;;1.02;100.00
38400;BME280;24180;42.676;23.320;2023-03-14T02:50:57;94882.66;;;0.92;100.00
38400;BME280;24180;42.676;23.320;2023-03-14T02:53:29;94883.47;;;1.09;100.00
38400;BME280;24180;42.676;23.320;2023-03-14T02:55:56;94892.75;;;1.25;100.00
38400;BME280;24180;42.676;23.320;2023-03-14T02:58:22;94853.72;;;0.93;100.00
38400;BME280;24180;42.676;23.320;2023-03-14T03:00:48;94883.00;;;0.86;100.00
38400;BME280;24180;42.676;23.320;2023-03-14T03:03:13;94890.59;;;0.88;100.00
38400;BME280;24180;42.676;23.320;2023-03-14T03:05:40;94868.03;;;0.80;100.00
38400;BME280;24180;42.676;23.320;2023-03-14T03:08:05;94893.69;;;0.93;100.00
38400;BME280;24180;42.676;23.320;2023-03-14T03:10:31;94887.94;;;1.05;100.00
38400;BME280;24180;42.676;23.320;2023-03-14T03:12:57;94875.34;;;1.02;100.00
38400;BME280;24180;42.676;23.320;2023-03-14T03:15:23;94877.84;;;1.04;100.00
38400;BME280;24180;42.676;23.320;2023-03-14T03:17:48;94883.84;;;1.03;100.00
38400;BME280;24180;42.676;23.320;2023-03-14T03:20:14;94854.63;;;0.92;100.00
38400;BME280;24180;42.676;23.320;2023-03-14T03:22:39;94861.69;;;1.19;100.00
38400;BME280;24180;42.676;23.320;2023-03-14T03:25:06;94882.31;;;1.30;100.00
38400;BME280;24180;42.676;23.320;2023-03-14T03:27:33;94872.97;;;1.15;100.00
38400;BME280;24180;42.676;23.320;2023-03-14T03:29:59;94864.09;;;1.06;100.00
38400;BME280;24180;42.676;23.320;2023-03-14T03:32:25;94876.59;;;1.11;100.00
38400;BME280;24180;42.676;23.320;2023-03-14T03:34:51;94847.50;;;0.83;100.00
38400;BME280;24180;42.676;23.320;2023-03-14T03:37:16;94844.69;;;0.72;100.00
38400;BME280;24180;42.676;23.320;2023-03-14T03:39:42;94884.41;;;1.08;100.00
38400;BME280;24180;42.676;23.320;2023-03-14T03:42:07;94871.22;;;1.15;100.00
38400;BME280;24180;42.676;23.320;2023-03-14T03:44:33;94887.19;;;1.19;100.00
38400;BME280;24180;42.676;23.320;2023-03-14T03:46:58;94859.91;;;0.89;100.00
38400;BME280;24180;42.676;23.320;2023-03-14T03:49:27;94887.53;;;0.97;100.00
38400;BME280;24180;42.676;23.320;2023-03-14T03:51:53;94851.38;;;0.59;100.00
38400;BME280;24180;42.676;23.320;2023-03-14T03:54:18;94893.56;;;0.96;100.00
38400;BME280;24180;42.676;23.320;2023-03-14T03:56:44;94895.56;;;1.05;100.00
38400;BME280;24180;42.676;23.320;2023-03-14T03:59:09;94898.31;;;1.02;100.00
38400;BME280;24180;42.676;23.320;2023-03-14T04:01:35;94896.00;;;0.98;100.00
38400;BME280;24180;42.676;23.320;2023-03-14T04:04:00;94839.03;;;0.36;100.00
38400;BME280;24180;42.676;23.320;2023-03-14T04:06:25;94893.50;;;0.49;100.00
38400;BME280;24180;42.676;23.320;2023-03-14T04:08:51;94851.47;;;0.25;100.00
38400;BME280;24180;42.676;23.320;2023-03-14T04:11:16;94849.34;;;0.33;100.00
38400;BME280;24180;42.676;23.320;2023-03-14T04:13:41;94881.56;;;0.34;100.00
38400;BME280;24180;42.676;23.320;2023-03-14T04:16:15;94879.28;;;0.45;100.00
38400;BME280;24180;42.676;23.320;2023-03-14T04:18:41;94812.19;;;0.13;100.00
38400;BME280;24180;42.676;23.320;2023-03-14T04:21:07;94843.84;;;0.25;100.00
38400;BME280;24180;42.676;23.320;2023-03-14T04:23:32;94864.16;;;0.26;100.00
38400;BME280;24180;42.676;23.320;2023-03-14T04:25:59;94861.25;;;0.32;100.00
38400;BME280;24180;42.676;23.320;2023-03-14T04:28:24;94865.47;;;0.49;100.00
38400;BME280;24180;42.676;23.320;2023-03-14T04:30:50;94837.56;;;0.32;100.00
38400;BME280;24180;42.676;23.320;2023-03-14T04:33:15;94844.44;;;0.45;100.00
38400;BME280;24180;42.676;23.320;2023-03-14T04:35:43;94828.16;;;0.32;100.00
38400;BME280;24180;42.676;23.320;2023-03-14T04:38:09;94855.16;;;0.52;100.00
38400;BME280;24180;42.676;23.320;2023-03-14T04:40:38;94858.44;;;0.54;100.00
38400;BME280;24180;42.676;23.320;2023-03-14T04:43:04;94843.31;;;0.51;100.00
38400;BME280;24180;42.676;23.320;2023-03-14T04:45:29;94851.19;;;0.62;100.00
38400;BME280;24180;42.676;23.320;2023-03-14T04:47:55;94837.56;;;0.63;100.00
38400;BME280;24180;42.676;23.320;2023-03-14T04:50:20;94854.97;;;0.71;100.00
38400;BME280;24180;42.676;23.320;2023-03-14T04:52:46;94822.59;;;0.41;100.00
38400;BME280;24180;42.676;23.320;2023-03-14T04:55:11;94835.50;;;0.70;100.00
38400;BME280;24180;42.676;23.320;2023-03-14T04:57:36;94835.50;;;0.70;100.00
38400;BME280;24180;42.676;23.320;2023-03-14T05:00:03;94841.81;;;0.78;100.00
38400;BME280;24180;42.676;23.320;2023-03-14T05:02:31;94795.97;;;0.63;100.00
38400;BME280;24180;42.676;23.320;2023-03-14T05:04:57;94827.16;;;0.98;100.00
38400;BME280;24180;42.676;23.320;2023-03-14T05:07:22;94827.84;;;0.85;100.00
38400;BME280;24180;42.676;23.320;2023-03-14T05:09:47;94827.50;;;0.91;100.00
38400;BME280;24180;42.676;23.320;2023-03-14T05:12:13;94809.28;;;0.83;100.00
38400;BME280;24180;42.676;23.320;2023-03-14T05:14:38;94820.91;;;1.03;100.00
38400;BME280;24180;42.676;23.320;2023-03-14T05:17:04;94829.94;;;1.09;100.00
38400;BME280;24180;42.676;23.320;2023-03-14T05:19:30;94827.63;;;1.20;100.00
38400;BME280;24180;42.676;23.320;2023-03-14T05:21:56;94821.59;;;1.21;100.00
38400;BME280;24180;42.676;23.320;2023-03-14T05:24:22;94828.75;;;1.30;100.00
38400;BME280;24180;42.676;23.320;2023-03-14T05:26:47;94824.66;;;1.27;100.00
38400;BME280;24180;42.676;23.320;2023-03-14T05:29:12;94809.13;;;1.01;100.00
38400;BME280;24180;42.676;23.320;2023-03-14T05:31:38;94829.09;;;1.24;100.00
38400;BME280;24180;42.676;23.320;2023-03-14T05:34:03;94832.75;;;1.34;100.00
38400;BME280;24180;42.676;23.320;2023-03-14T05:36:29;94831.44;;;1.42;100.00
38400;BME280;24180;42.676;23.320;2023-03-14T05:38:54;94783.53;;;1.18;100.00
38400;BME280;24180;42.676;23.320;2023-03-14T05:41:19;94819.94;;;1.50;100.00
38400;BME280;24180;42.676;23.320;2023-03-14T05:43:45;94784.47;;;1.31;100.00
38400;BME280;24180;42.676;23.320;2023-03-14T05:46:10;94827.31;;;1.84;100.00
38400;BME280;24180;42.676;23.320;2023-03-14T05:48:35;94817.81;;;1.86;100.00
38400;BME280;24180;42.676;23.320;2023-03-14T05:51:01;94832.34;;;2.00;100.00
38400;BME280;24180;42.676;23.320;2023-03-14T05:53:27;94830.13;;;1.94;100.00
38400;BME280;24180;42.676;23.320;2023-03-14T05:55:55;94805.66;;;1.61;100.00
38400;BME280;24180;42.676;23.320;2023-03-14T05:58:21;94823.94;;;1.83;100.00
38400;BME280;24180;42.676;23.320;2023-03-14T06:00:46;94795.13;;;1.81;100.00
38400;BME280;24180;42.676;23.320;2023-03-14T06:03:12;94819.38;;;2.03;100.00
38400;BME280;24180;42.676;23.320;2023-03-14T06:05:37;94829.34;;;2.07;100.00
38400;BME280;24180;42.676;23.320;2023-03-14T06:08:03;94809.81;;;1.92;100.00
38400;BME280;24180;42.676;23.320;2023-03-14T06:10:28;94819.94;;;2.08;100.00
38400;BME280;24180;42.676;23.320;2023-03-14T06:12:54;94823.13;;;2.11;100.00
38400;BME280;24180;42.676;23.320;2023-03-14T06:15:19;94824.69;;;2.14;100.00
38400;BME280;24180;42.676;23.320;2023-03-14T06:17:45;94817.13;;;2.12;100.00
38400;BME280;24180;42.676;23.320;2023-03-14T06:20:11;94798.50;;;1.96;100.00
38400;BME280;24180;42.676;23.320;2023-03-14T06:22:36;94825.03;;;2.22;100.00
38400;BME280;24180;42.676;23.320;2023-03-14T06:25:03;94832.59;;;2.38;100.00
38400;BME280;24180;42.676;23.320;2023-03-14T06:27:29;94828.69;;;2.32;100.00
38400;BME280;24180;42.676;23.320;2023-03-14T06:29:54;94833.59;;;2.49;100.00
38400;BME280;24180;42.676;23.320;2023-03-14T06:32:20;94839.78;;;2.59;100.00
38400;BME280;24180;42.676;23.320;2023-03-14T06:34:46;94831.84;;;2.64;100.00
38400;BME280;24180;42.676;23.320;2023-03-14T06:37:11;94804.00;;;2.59;100.00
38400;BME280;24180;42.676;23.320;2023-03-14T06:39:36;94830.81;;;2.66;100.00
38400;BME280;24180;42.676;23.320;2023-03-14T06:42:03;94805.66;;;2.46;100.00
38400;BME280;24180;42.676;23.320;2023-03-14T06:44:29;94793.91;;;2.44;100.00
38400;BME280;24180;42.676;23.320;2023-03-14T06:46:54;94820.94;;;2.89;100.00
38400;BME280;24180;42.676;23.320;2023-03-14T06:49:20;94816.19;;;2.82;100.00
38400;BME280;24180;42.676;23.320;2023-03-14T06:51:45;94805.19;;;2.95;100.00
38400;BME280;24180;42.676;23.320;2023-03-14T06:54:11;94800.53;;;3.14;100.00
38400;BME280;24180;42.676;23.320;2023-03-14T06:56:37;94798.13;;;3.38;100.00
38400;BME280;24180;42.676;23.320;2023-03-14T06:59:02;94770.94;;;3.10;100.00
38400;BME280;24180;42.676;23.320;2023-03-14T07:01:29;94787.69;;;3.28;100.00
38400;BME280;24180;42.676;23.320;2023-03-14T07:03:55;94789.34;;;3.42;100.00
38400;BME280;24180;42.676;23.320;2023-03-14T07:06:21;94784.56;;;3.62;100.00
38400;BME280;24180;42.676;23.320;2023-03-14T07:08:46;94784.06;;;3.83;100.00
38400;BME280;24180;42.676;23.320;2023-03-14T07:11:12;94782.84;;;3.75;100.00
38400;BME280;24180;42.676;23.320;2023-03-14T07:13:38;94772.78;;;3.98;100.00
38400;BME280;24180;42.676;23.320;2023-03-14T07:16:05;94787.31;;;4.10;100.00
38400;BME280;24180;42.676;23.320;2023-03-14T07:18:31;94769.69;;;4.05;100.00
38400;BME280;24180;42.676;23.320;2023-03-14T07:20:56;94784.63;;;4.37;100.00
38400;BME280;24180;42.676;23.320;2023-03-14T07:23:22;94760.22;;;4.31;100.00
38400;BME280;24180;42.676;23.320;2023-03-14T07:25:47;94772.94;;;4.45;100.00
38400;BME280;24180;42.676;23.320;2023-03-14T07:28:13;94788.66;;;4.64;100.00
38400;BME280;24180;42.676;23.320;2023-03-14T07:30:38;94748.28;;;4.55;100.00
38400;BME280;24180;42.676;23.320;2023-03-14T07:33:03;94776.00;;;4.98;100.00
38400;BME280;24180;42.676;23.320;2023-03-14T07:35:29;94768.31;;;4.98;100.00
38400;BME280;24180;42.676;23.320;2023-03-14T07:37:54;94737.06;;;4.93;100.00
38400;BME280;24180;42.676;23.320;2023-03-14T07:40:20;94749.00;;;5.05;100.00
38400;BME280;24180;42.676;23.320;2023-03-14T07:42:46;94750.28;;;5.10;98.98
38400;BME280;24180;42.676;23.320;2023-03-14T07:45:12;94732.66;;;5.06;98.71
38400;BME280;24180;42.676;23.320;2023-03-14T07:47:37;94713.53;;;5.10;97.40
38400;BME280;24180;42.676;23.320;2023-03-14T07:50:04;94756.47;;;5.43;96.20
38400;BME280;24180;42.676;23.320;2023-03-14T07:52:30;94742.03;;;5.53;93.34
38400;BME280;24180;42.676;23.320;2023-03-14T07:54:55;94746.47;;;5.62;91.54
38400;BME280;24180;42.676;23.320;2023-03-14T07:57:21;94732.84;;;5.73;89.63
38400;BME280;24180;42.676;23.320;2023-03-14T07:59:46;94759.28;;;5.97;85.46
38400;BME280;24180;42.676;23.320;2023-03-14T08:02:12;94744.47;;;5.89;85.58
38400;BME280;24180;42.676;23.320;2023-03-14T08:04:39;94725.00;;;5.74;84.67
38400;BME280;24180;42.676;23.320;2023-03-14T08:07:05;94748.69;;;6.01;84.58
38400;BME280;24180;42.676;23.320;2023-03-14T08:09:31;94721.66;;;6.07;83.07
38400;BME280;24180;42.676;23.320;2023-03-14T08:11:56;94742.47;;;6.37;80.78
38400;BME280;24180;42.676;23.320;2023-03-14T08:14:22;94736.97;;;6.42;79.02
38400;BME280;24180;42.676;23.320;2023-03-14T08:16:50;94722.25;;;6.33;78.28
38400;BME280;24180;42.676;23.320;2023-03-14T08:19:16;94741.50;;;6.61;77.86
38400;BME280;24180;42.676;23.320;2023-03-14T08:21:42;94739.31;;;6.88;78.05
38400;BME280;24180;42.676;23.320;2023-03-14T08:24:07;94724.03;;;7.07;76.13
38400;BME280;24180;42.676;23.320;2023-03-14T08:26:33;94741.41;;;7.46;73.10
38400;BME280;24180;42.676;23.320;2023-03-14T08:28:58;94712.53;;;7.11;71.50
38400;BME280;24180;42.676;23.320;2023-03-14T08:31:24;94713.94;;;7.15;71.87
38400;BME280;24180;42.676;23.320;2023-03-14T08:33:49;94719.75;;;7.49;70.02
38400;BME280;24180;42.676;23.320;2023-03-14T08:36:17;94715.03;;;7.33;68.67
38400;BME280;24180;42.676;23.320;2023-03-14T08:38:43;94724.19;;;7.47;69.19
38400;BME280;24180;42.676;23.320;2023-03-14T08:41:08;94723.81;;;7.51;67.25
38400;BME280;24180;42.676;23.320;2023-03-14T08:43:34;94720.41;;;7.72;66.73
38400;BME280;24180;42.676;23.320;2023-03-14T08:46:01;94691.63;;;7.67;65.23
38400;BME280;24180;42.676;23.320;2023-03-14T08:48:27;94712.66;;;7.92;65.26
38400;BME280;24180;42.676;23.320;2023-03-14T08:50:56;94701.44;;;8.03;63.34
38400;BME280;24180;42.676;23.320;2023-03-14T08:53:22;94678.22;;;8.03;64.35
38400;BME280;24180;42.676;23.320;2023-03-14T08:55:54;94692.97;;;8.22;60.65
38400;BME280;24180;42.676;23.320;2023-03-14T08:58:19;94692.44;;;8.18;61.15
38400;BME280;24180;42.676;23.320;2023-03-14T09:00:45;94678.94;;;8.45;59.81
38400;BME280;24180;42.676;23.320;2023-03-14T09:03:10;94664.97;;;8.48;60.60
38400;BME280;24180;42.676;23.320;2023-03-14T09:05:36;94653.16;;;8.64;59.80
38400;BME280;24180;42.676;23.320;2023-03-14T09:08:01;94676.28;;;8.85;58.51
38400;BME280;24180;42.676;23.320;2023-03-14T09:10:27;94641.63;;;8.68;57.43
38400;BME280;24180;42.676;23.320;2023-03-14T09:12:52;94657.00;;;9.08;56.98
38400;BME280;24180;42.676;23.320;2023-03-14T09:15:18;94631.13;;;9.27;57.57
38400;BME280;24180;42.676;23.320;2023-03-14T09:17:43;94651.63;;;9.58;54.87
38400;BME280;24180;42.676;23.320;2023-03-14T09:20:10;94641.25;;;9.67;53.56
38400;BME280;24180;42.676;23.320;2023-03-14T09:22:36;94630.47;;;9.81;53.25
38400;BME280;24180;42.676;23.320;2023-03-14T09:25:05;94607.28;;;9.90;53.17
38400;BME280;24180;42.676;23.320;2023-03-14T09:27:31;94620.13;;;10.18;52.08
38400;BME280;24180;42.676;23.320;2023-03-14T09:29:56;94606.28;;;10.00;51.16
38400;BME280;24180;42.676;23.320;2023-03-14T09:32:22;94598.81;;;9.97;51.02
38400;BME280;24180;42.676;23.320;2023-03-14T09:34:47;94614.75;;;10.29;51.13
38400;BME280;24180;42.676;23.320;2023-03-14T09:37:12;94594.50;;;10.43;50.49
38400;BME280;24180;42.676;23.320;2023-03-14T09:39:38;94600.34;;;10.80;49.89
38400;BME280;24180;42.676;23.320;2023-03-14T09:42:06;94600.41;;;10.88;47.48
38400;BME280;24180;42.676;23.320;2023-03-14T09:44:37;94597.00;;;11.05;47.35
38400;BME280;24180;42.676;23.320;2023-03-14T09:47:12;94575.19;;;11.34;46.57
38400;BME280;24180;42.676;23.320;2023-03-14T09:49:40;94587.19;;;11.86;45.20
38400;BME280;24180;42.676;23.320;2023-03-14T09:54:45;94575.81;;;13.20;40.60
38400;BME280;24180;42.676;23.320;2023-03-14T09:57:16;94570.25;;;14.41;38.24
38400;BME280;24180;42.676;23.320;2023-03-14T09:59:44;94558.47;;;16.03;35.94
38400;BME280;24180;42.676;23.320;2023-03-14T10:02:14;94561.50;;;17.91;33.17
38400;BME280;24180;42.676;23.320;2023-03-14T10:04:40;94531.84;;;18.79;30.83
38400;BME280;24180;42.676;23.320;2023-03-14T10:07:13;94534.13;;;19.80;29.47
38400;BME280;24180;42.676;23.320;2023-03-14T10:09:42;94550.06;;;19.79;28.03
38400;BME280;24180;42.676;23.320;2023-03-14T10:12:08;94544.03;;;19.58;28.60
38400;BME280;24180;42.676;23.320;2023-03-14T10:14:36;94525.75;;;20.03;28.02
38400;BME280;24180;42.676;23.320;2023-03-14T10:17:12;94528.69;;;20.39;27.25
38400;BME280;24180;42.676;23.320;2023-03-14T10:19:54;94500.81;;;21.57;26.60
38400;BME280;24180;42.676;23.320;2023-03-14T10:22:21;94480.16;;;22.15;25.88
38400;BME280;24180;42.676;23.320;2023-03-14T10:25:03;94486.94;;;23.54;24.16
38400;BME280;24180;42.676;23.320;2023-03-14T10:27:34;94492.41;;;24.34;23.33
38400;BME280;24180;42.676;23.320;2023-03-14T10:33:30;94480.66;;;24.69;23.44
38400;BME280;24180;42.676;23.320;2023-03-14T10:35:59;94467.00;;;24.61;23.78
38400;BME280;24180;42.676;23.320;2023-03-14T10:38:28;94444.50;;;23.37;23.97
38400;BME280;24180;42.676;23.320;2023-03-14T10:40:55;94438.81;;;24.27;23.89
38400;BME280;24180;42.676;23.320;2023-03-14T10:43:40;94454.50;;;23.93;24.34
38400;BME280;24180;42.676;23.320;2023-03-14T10:46:08;94446.66;;;24.21;24.52
38400;BME280;24180;42.676;23.320;2023-03-14T10:48:36;94421.38;;;24.02;24.42
38400;BME280;24180;42.676;23.320;2023-03-14T10:51:19;94430.63;;;23.65;24.62
38400;BME280;24180;42.676;23.320;2023-03-14T10:54:00;94401.97;;;23.85;24.68
38400;BME280;24180;42.676;23.320;2023-03-14T10:56:28;94389.16;;;24.05;24.96
38400;BME280;24180;42.676;23.320;2023-03-14T10:58:58;94403.28;;;25.12;24.38
38400;BME280;24180;42.676;23.320;2023-03-14T11:01:51;94413.34;;;24.82;24.10
38400;BME280;24180;42.676;23.320;2023-03-14T11:07:07;94408.06;;;23.39;25.27
38400;BME280;24180;42.676;23.320;2023-03-14T11:09:49;94403.81;;;23.85;24.75
38400;BME280;24180;42.676;23.320;2023-03-14T11:14:47;94384.38;;;26.46;23.56
38400;BME280;24180;42.676;23.320;2023-03-14T11:17:53;94376.16;;;27.43;22.53
38400;BME280;24180;42.676;23.320;2023-03-14T11:22:46;94329.78;;;23.85;24.55
38400;BME280;24180;42.676;23.320;2023-03-14T11:25:45;94339.31;;;24.26;23.90
38400;BME280;24180;42.676;23.320;2023-03-14T11:36:33;94298.97;;;22.04;26.05
38400;BME280;24180;42.676;23.320;2023-03-14T11:39:02;94297.53;;;19.69;28.44
38400;BME280;24180;42.676;23.320;2023-03-14T11:41:40;94302.16;;;19.67;29.26
38400;BME280;24180;42.676;23.320;2023-03-14T11:44:29;94283.00;;;19.97;28.80
38400;BME280;24180;42.676;23.320;2023-03-14T11:47:23;94273.31;;;19.91;29.34
38400;BME280;24180;42.676;23.320;2023-03-14T11:50:17;94265.63;;;19.07;30.42
38400;BME280;24180;42.676;23.320;2023-03-14T11:52:54;94262.91;;;18.23;31.47
38400;BME280;24180;42.676;23.320;2023-03-14T11:55:37;94290.50;;;17.80;32.45
38400;BME280;24180;42.676;23.320;2023-03-14T11:58:20;94258.66;;;17.22;33.08
38400;BME280;24180;42.676;23.320;2023-03-14T12:00:49;94253.53;;;17.01;33.41
38400;BME280;24180;42.676;23.320;2023-03-14T12:09:03;94201.66;;;16.02;33.76
38400;BME280;24180;42.676;23.320;2023-03-14T12:11:52;94258.91;;;16.52;33.58
38400;BME280;24180;42.676;23.320;2023-03-14T12:14:26;94238.38;;;16.21;33.88
38400;BME280;24180;42.676;23.320;2023-03-14T12:19:38;94236.09;;;16.12;34.40
38400;BME280;24180;42.676;23.320;2023-03-14T12:24:39;94222.56;;;16.02;35.27
38400;BME280;24180;42.676;23.320;2023-03-14T12:27:13;94193.97;;;15.93;34.96
38400;BME280;24180;42.676;23.320;2023-03-14T12:29:58;94173.31;;;15.71;34.29
38400;BME280;24180;42.676;23.320;2023-03-14T12:32:24;94160.53;;;15.76;34.41
38400;BME280;24180;42.676;23.320;2023-03-14T12:34:50;94201.81;;;15.93;34.38
38400;BME280;24180;42.676;23.320;2023-03-14T12:37:35;94218.84;;;15.89;34.61
38400;BME280;24180;42.676;23.320;2023-03-14T12:40:30;94199.06;;;16.02;34.29
38400;BME280;24180;42.676;23.320;2023-03-14T12:42:58;94189.91;;;15.63;34.41
38400;BME280;24180;42.676;23.320;2023-03-14T12:45:32;94189.84;;;15.78;34.64
38400;BME280;24180;42.676;23.320;2023-03-14T12:48:24;94180.34;;;15.70;34.79
38400;BME280;24180;42.676;23.320;2023-03-14T12:51:00;94191.16;;;15.88;34.90
38400;BME280;24180;42.676;23.320;2023-03-14T12:59:37;94167.66;;;16.23;34.19
38400;BME280;24180;42.676;23.320;2023-03-14T13:04:53;94130.25;;;16.16;34.59
38400;BME280;24180;42.676;23.320;2023-03-14T13:10:22;94160.34;;;16.46;34.03
38400;BME280;24180;42.676;23.320;2023-03-14T13:12:56;94146.06;;;16.42;35.29
38400;BME280;24180;42.676;23.320;2023-03-14T13:15:26;94125.78;;;16.44;34.58
38400;BME280;24180;42.676;23.320;2023-03-14T13:17:54;94144.31;;;16.56;34.23
38400;BME280;24180;42.676;23.320;2023-03-14T13:20:26;94146.56;;;16.59;34.21
38400;BME280;24180;42.676;23.320;2023-03-14T13:22:53;94120.81;;;16.56;33.58
38400;BME280;24180;42.676;23.320;2023-03-14T13:25:18;94123.41;;;16.56;34.43
38400;BME280;24180;42.676;23.320;2023-03-14T13:27:46;94088.50;;;16.29;34.36
38400;BME280;24180;42.676;23.320;2023-03-14T13:30:24;94116.91;;;16.45;33.83
38400;BME280;24180;42.676;23.320;2023-03-14T13:32:53;94114.31;;;16.45;34.36
38400;BME280;24180;42.676;23.320;2023-03-14T13:35:27;94105.56;;;16.25;34.00
38400;BME280;24180;42.676;23.320;2023-03-14T13:38:01;94098.16;;;16.28;33.76
38400;BME280;24180;42.676;23.320;2023-03-14T13:40:32;94067.00;;;16.27;33.42
38400;BME280;24180;42.676;23.320;2023-03-14T13:43:39;94087.19;;;16.46;33.25
38400;BME280;24180;42.676;23.320;2023-03-14T13:48:52;94062.28;;;16.50;33.30
38400;BME280;24180;42.676;23.320;2023-03-14T13:51:20;94062.00;;;16.32;33.55